sensor_id;sensor_type;location;lat;lon;timestamp;pressure;altitude;pressure_sealevel;temperature;humidity
71805;BME280;59654;52.216;5.616;2023-02-14T00:00:04;103305.31;;;0.58;89.10
71805;BME280;59654;52.216;5.616;2023-02-14T00:00:38;103308.75;;;0.55;88.45
71805;BME280;59654;52.216;5.616;2023-02-14T00:01:11;103307.84;;;0.55;88.82
71805;BME280;59654;52.216;5.616;2023-02-14T00:01:43;103306.06;;;0.54;88.62
71805;BME280;59654;52.216;5.616;2023-02-14T00:02:15;103303.38;;;0.52;88.36
71805;BME280;59654;52.216;5.616;2023-02-14T00:02:45;103312.81;;;0.48;88.18
71805;BME280;59654;52.216;5.616;2023-02-14T00:03:16;103306.63;;;0.46;88.26
71805;BME280;59654;52.216;5.616;2023-02-14T00:03:47;103303.09;;;0.46;88.17
71805;BME280;59654;52.216;5.616;2023-02-14T00:04:19;103309.09;;;0.43;88.19
71805;BME280;59654;52.216;5.616;2023-02-14T00:04:49;103310.75;;;0.41;88.32
71805;BME280;59654;52.216;5.616;2023-02-14T00:05:20;103308.94;;;0.39;88.21
71805;BME280;59654;52.216;5.616;2023-02-14T00:05:51;103310.72;;;0.40;88.53
71805;BME280;59654;52.216;5.616;2023-02-14T00:06:22;103312.38;;;0.38;88.00
71805;BME280;59654;52.216;5.616;2023-02-14T00:06:53;103306.22;;;0.37;88.46
71805;BME280;59654;52.216;5.616;2023-02-14T00:07:23;103307.13;;;0.38;88.69
71805;BME280;59654;52.216;5.616;2023-02-14T00:07:54;103314.09;;;0.37;88.67
71805;BME280;59654;52.216;5.616;2023-02-14T00:08:25;103306.16;;;0.36;89.03
71805;BME280;59654;52.216;5.616;2023-02-14T00:08:56;103300.78;;;0.33;89.01
71805;BME280;59654;52.216;5.616;2023-02-14T00:09:26;103312.25;;;0.35;89.43
71805;BME280;59654;52.216;5.616;2023-02-14T00:09:57;103308.66;;;0.33;89.70
71805;BME280;59654;52.216;5.616;2023-02-14T00:10:28;103312.09;;;0.32;89.45
71805;BME280;59654;52.216;5.616;2023-02-14T00:10:59;103303.34;;;0.31;89.54
71805;BME280;59654;52.216;5.616;2023-02-14T00:11:30;103305.06;;;0.31;89.74
71805;BME280;59654;52.216;5.616;2023-02-14T00:12:02;103311.13;;;0.30;90.09
71805;BME280;59654;52.216;5.616;2023-02-14T00:12:33;103297.13;;;0.29;90.12
71805;BME280;59654;52.216;5.616;2023-02-14T00:13:03;103303.25;;;0.30;89.91
71805;BME280;59654;52.216;5.616;2023-02-14T00:13:34;103306.78;;;0.30;89.72
71805;BME280;59654;52.216;5.616;2023-02-14T00:14:05;103302.38;;;0.29;89.66
71805;BME280;59654;52.216;5.616;2023-02-14T00:14:55;103301.53;;;0.30;89.53
71805;BME280;59654;52.216;5.616;2023-02-14T00:15:45;103304.03;;;0.27;89.09
71805;BME280;59654;52.216;5.616;2023-02-14T00:16:15;103304.03;;;0.27;89.51
71805;BME280;59654;52.216;5.616;2023-02-14T00:16:46;103304.03;;;0.27;89.49
71805;BME280;59654;52.216;5.616;2023-02-14T00:17:17;103298.69;;;0.26;89.33
71805;BME280;59654;52.216;5.616;2023-02-14T00:17:52;103303.06;;;0.25;89.65
71805;BME280;59654;52.216;5.616;2023-02-14T00:18:25;103305.63;;;0.24;89.66
71805;BME280;59654;52.216;5.616;2023-02-14T00:19:16;103309.09;;;0.23;89.49
71805;BME280;59654;52.216;5.616;2023-02-14T00:19:47;103302.03;;;0.22;89.92
71805;BME280;59654;52.216;5.616;2023-02-14T00:20:19;103301.97;;;0.20;89.87
71805;BME280;59654;52.216;5.616;2023-02-14T00:20:51;103301.91;;;0.19;89.45
71805;BME280;59654;52.216;5.616;2023-02-14T00:21:22;103303.63;;;0.18;89.67
71805;BME280;59654;52.216;5.616;2023-02-14T00:21:53;103300.94;;;0.16;89.67
71805;BME280;59654;52.216;5.616;2023-02-14T00:22:23;103298.25;;;0.15;89.12
71805;BME280;59654;52.216;5.616;2023-02-14T00:22:54;103304.31;;;0.14;89.69
71805;BME280;59654;52.216;5.616;2023-02-14T00:23:25;103305.16;;;0.13;89.85
71805;BME280;59654;52.216;5.616;2023-02-14T00:23:56;103309.41;;;0.11;90.18
71805;BME280;59654;52.216;5.616;2023-02-14T00:24:27;103307.63;;;0.10;90.14
71805;BME280;59654;52.216;5.616;2023-02-14T00:24:58;103312.88;;;0.10;89.86
71805;BME280;59654;52.216;5.616;2023-02-14T00:25:29;103307.59;;;0.08;90.40
71805;BME280;59654;52.216;5.616;2023-02-14T00:26:00;103311.06;;;0.09;89.82
71805;BME280;59654;52.216;5.616;2023-02-14T00:26:30;103306.69;;;0.08;90.29
71805;BME280;59654;52.216;5.616;2023-02-14T00:27:01;103302.28;;;0.07;89.97
71805;BME280;59654;52.216;5.616;2023-02-14T00:27:32;103299.59;;;0.05;89.79
71805;BME280;59654;52.216;5.616;2023-02-14T00:28:05;103301.31;;;0.05;90.45
71805;BME280;59654;52.216;5.616;2023-02-14T00:28:36;103303.03;;;0.04;90.17
71805;BME280;59654;52.216;5.616;2023-02-14T00:29:15;103297.78;;;0.04;90.40
71805;BME280;59654;52.216;5.616;2023-02-14T00:29:48;103296.88;;;0.04;89.86
71805;BME280;59654;52.216;5.616;2023-02-14T00:30:19;103301.16;;;0.02;90.16
71805;BME280;59654;52.216;5.616;2023-02-14T00:30:50;103298.47;;;0.00;90.22
71805;BME280;59654;52.216;5.616;2023-02-14T00:31:21;103299.22;;;-0.02;90.04
71805;BME280;59654;52.216;5.616;2023-02-14T00:31:52;103303.56;;;-0.03;90.40
71805;BME280;59654;52.216;5.616;2023-02-14T00:32:23;103301.78;;;-0.04;90.52
71805;BME280;59654;52.216;5.616;2023-02-14T00:32:57;103301.69;;;-0.05;90.23
71805;BME280;59654;52.216;5.616;2023-02-14T00:33:28;103301.69;;;-0.05;90.36
71805;BME280;59654;52.216;5.616;2023-02-14T00:33:58;103298.19;;;-0.06;90.83
71805;BME280;59654;52.216;5.616;2023-02-14T00:34:30;103298.09;;;-0.07;90.78
71805;BME280;59654;52.216;5.616;2023-02-14T00:35:02;103291.94;;;-0.09;90.93
71805;BME280;59654;52.216;5.616;2023-02-14T00:35:36;103303.31;;;-0.09;90.69
71805;BME280;59654;52.216;5.616;2023-02-14T00:36:09;103304.13;;;-0.10;90.88
71805;BME280;59654;52.216;5.616;2023-02-14T00:36:41;103291.94;;;-0.09;91.03
71805;BME280;59654;52.216;5.616;2023-02-14T00:37:12;103298.91;;;-0.10;90.82
71805;BME280;59654;52.216;5.616;2023-02-14T00:37:44;103291.03;;;-0.10;90.61
71805;BME280;59654;52.216;5.616;2023-02-14T00:38:16;103298.00;;;-0.10;90.39
71805;BME280;59654;52.216;5.616;2023-02-14T00:38:47;103295.31;;;-0.12;90.12
71805;BME280;59654;52.216;5.616;2023-02-14T00:39:18;103298.81;;;-0.11;90.45
71805;BME280;59654;52.216;5.616;2023-02-14T00:39:49;103300.53;;;-0.12;90.68
71805;BME280;59654;52.216;5.616;2023-02-14T00:40:20;103290.88;;;-0.13;90.02
71805;BME280;59654;52.216;5.616;2023-02-14T00:40:51;103296.19;;;-0.11;90.31
71805;BME280;59654;52.216;5.616;2023-02-14T00:41:22;103302.34;;;-0.11;90.38
71805;BME280;59654;52.216;5.616;2023-02-14T00:41:54;103294.41;;;-0.12;90.37
71805;BME280;59654;52.216;5.616;2023-02-14T00:42:25;103287.38;;;-0.13;90.12
71805;BME280;59654;52.216;5.616;2023-02-14T00:42:56;103294.34;;;-0.14;90.28
71805;BME280;59654;52.216;5.616;2023-02-14T00:43:26;103293.44;;;-0.14;90.59
71805;BME280;59654;52.216;5.616;2023-02-14T00:43:58;103289.09;;;-0.14;90.40
71805;BME280;59654;52.216;5.616;2023-02-14T00:44:29;103287.44;;;-0.12;90.80
71805;BME280;59654;52.216;5.616;2023-02-14T00:45:00;103290.13;;;-0.10;90.35
71805;BME280;59654;52.216;5.616;2023-02-14T00:45:30;103283.09;;;-0.11;90.03
71805;BME280;59654;52.216;5.616;2023-02-14T00:46:01;103285.72;;;-0.11;90.54
71805;BME280;59654;52.216;5.616;2023-02-14T00:46:33;103288.25;;;-0.13;89.79
71805;BME280;59654;52.216;5.616;2023-02-14T00:47:05;103289.03;;;-0.15;90.00
71805;BME280;59654;52.216;5.616;2023-02-14T00:47:36;103286.41;;;-0.15;89.95
71805;BME280;59654;52.216;5.616;2023-02-14T00:48:07;103285.50;;;-0.16;90.24
71805;BME280;59654;52.216;5.616;2023-02-14T00:48:37;103282.81;;;-0.17;89.79
71805;BME280;59654;52.216;5.616;2023-02-14T00:49:08;103291.50;;;-0.19;89.79
71805;BME280;59654;52.216;5.616;2023-02-14T00:49:41;103289.63;;;-0.21;89.79
71805;BME280;59654;52.216;5.616;2023-02-14T00:50:12;103293.06;;;-0.22;89.84
71805;BME280;59654;52.216;5.616;2023-02-14T00:50:43;103285.13;;;-0.24;89.31
71805;BME280;59654;52.216;5.616;2023-02-14T00:51:17;103295.59;;;-0.25;89.58
71805;BME280;59654;52.216;5.616;2023-02-14T00:51:48;103292.97;;;-0.25;89.61
71805;BME280;59654;52.216;5.616;2023-02-14T00:52:19;103293.72;;;-0.28;89.97
71805;BME280;59654;52.216;5.616;2023-02-14T00:52:50;103298.97;;;-0.28;89.55
71805;BME280;59654;52.216;5.616;2023-02-14T00:53:21;103284.06;;;-0.29;89.80
71805;BME280;59654;52.216;5.616;2023-02-14T00:53:53;103290.94;;;-0.31;89.83
71805;BME280;59654;52.216;5.616;2023-02-14T00:54:24;103292.66;;;-0.31;89.96
71805;BME280;59654;52.216;5.616;2023-02-14T00:54:55;103289.97;;;-0.33;89.76
71805;BME280;59654;52.216;5.616;2023-02-14T00:55:26;103286.47;;;-0.33;89.97
71805;BME280;59654;52.216;5.616;2023-02-14T00:55:57;103301.22;;;-0.35;90.35
71805;BME280;59654;52.216;5.616;2023-02-14T00:56:28;103288.03;;;-0.37;90.00
71805;BME280;59654;52.216;5.616;2023-02-14T00:56:59;103290.59;;;-0.38;89.84
71805;BME280;59654;52.216;5.616;2023-02-14T00:57:29;103287.97;;;-0.38;90.35
71805;BME280;59654;52.216;5.616;2023-02-14T00:58:01;103287.03;;;-0.40;90.51
71805;BME280;59654;52.216;5.616;2023-02-14T00:58:32;103288.75;;;-0.41;90.64
71805;BME280;59654;52.216;5.616;2023-02-14T00:59:03;103283.50;;;-0.41;90.80
71805;BME280;59654;52.216;5.616;2023-02-14T00:59:33;103289.66;;;-0.40;90.16
71805;BME280;59654;52.216;5.616;2023-02-14T01:00:08;103282.59;;;-0.41;90.48
71805;BME280;59654;52.216;5.616;2023-02-14T01:00:39;103287.03;;;-0.40;90.54
71805;BME280;59654;52.216;5.616;2023-02-14T01:01:11;103281.78;;;-0.40;90.25
71805;BME280;59654;52.216;5.616;2023-02-14T01:01:42;103288.75;;;-0.41;90.26
71805;BME280;59654;52.216;5.616;2023-02-14T01:02:13;103284.41;;;-0.40;90.55
71805;BME280;59654;52.216;5.616;2023-02-14T01:02:44;103284.31;;;-0.42;90.28
71805;BME280;59654;52.216;5.616;2023-02-14T01:03:14;103283.50;;;-0.41;90.15
71805;BME280;59654;52.216;5.616;2023-02-14T01:03:46;103280.81;;;-0.42;90.42
71805;BME280;59654;52.216;5.616;2023-02-14T01:04:17;103274.66;;;-0.43;89.91
71805;BME280;59654;52.216;5.616;2023-02-14T01:04:49;103273.69;;;-0.45;89.93
71805;BME280;59654;52.216;5.616;2023-02-14T01:05:20;103279.84;;;-0.44;90.40
71805;BME280;59654;52.216;5.616;2023-02-14T01:05:52;103274.53;;;-0.46;90.22
71805;BME280;59654;52.216;5.616;2023-02-14T01:06:23;103279.75;;;-0.46;90.07
71805;BME280;59654;52.216;5.616;2023-02-14T01:06:54;103274.44;;;-0.47;90.32
71805;BME280;59654;52.216;5.616;2023-02-14T01:07:25;103279.63;;;-0.49;90.27
71805;BME280;59654;52.216;5.616;2023-02-14T01:07:56;103276.09;;;-0.49;90.01
71805;BME280;59654;52.216;5.616;2023-02-14T01:08:26;103278.72;;;-0.49;89.98
71805;BME280;59654;52.216;5.616;2023-02-14T01:08:57;103274.31;;;-0.50;89.96
71805;BME280;59654;52.216;5.616;2023-02-14T01:09:28;103275.13;;;-0.51;90.16
71805;BME280;59654;52.216;5.616;2023-02-14T01:09:59;103275.13;;;-0.51;90.45
71805;BME280;59654;52.216;5.616;2023-02-14T01:10:30;103280.44;;;-0.50;90.14
71805;BME280;59654;52.216;5.616;2023-02-14T01:11:42;103280.38;;;-0.51;89.97
71805;BME280;59654;52.216;5.616;2023-02-14T01:12:13;103275.94;;;-0.53;89.72
71805;BME280;59654;52.216;5.616;2023-02-14T01:12:46;103280.28;;;-0.53;89.67
71805;BME280;59654;52.216;5.616;2023-02-14T01:13:17;103281.94;;;-0.55;89.50
71805;BME280;59654;52.216;5.616;2023-02-14T01:13:49;103279.28;;;-0.57;89.66
71805;BME280;59654;52.216;5.616;2023-02-14T01:14:21;103280.94;;;-0.59;89.71
71805;BME280;59654;52.216;5.616;2023-02-14T01:14:53;103280.94;;;-0.59;89.53
71805;BME280;59654;52.216;5.616;2023-02-14T01:15:25;103275.63;;;-0.60;89.70
71805;BME280;59654;52.216;5.616;2023-02-14T01:15:55;103277.34;;;-0.61;89.56
71805;BME280;59654;52.216;5.616;2023-02-14T01:16:29;103283.41;;;-0.62;89.42
71805;BME280;59654;52.216;5.616;2023-02-14T01:17:00;103285.13;;;-0.62;89.30
71805;BME280;59654;52.216;5.616;2023-02-14T01:17:31;103276.44;;;-0.61;89.55
71805;BME280;59654;52.216;5.616;2023-02-14T01:18:01;103272.91;;;-0.62;89.57
71805;BME280;59654;52.216;5.616;2023-02-14T01:18:33;103273.75;;;-0.63;89.96
71805;BME280;59654;52.216;5.616;2023-02-14T01:19:04;103281.53;;;-0.64;89.38
71805;BME280;59654;52.216;5.616;2023-02-14T01:19:35;103274.50;;;-0.65;89.59
71805;BME280;59654;52.216;5.616;2023-02-14T01:20:08;103278.84;;;-0.66;89.32
71805;BME280;59654;52.216;5.616;2023-02-14T01:20:40;103273.53;;;-0.67;89.63
71805;BME280;59654;52.216;5.616;2023-02-14T01:21:55;103275.25;;;-0.68;89.93
71805;BME280;59654;52.216;5.616;2023-02-14T01:22:26;103271.66;;;-0.70;90.27
71805;BME280;59654;52.216;5.616;2023-02-14T01:22:57;103274.25;;;-0.70;90.03
71805;BME280;59654;52.216;5.616;2023-02-14T01:23:28;103277.78;;;-0.69;90.04
71805;BME280;59654;52.216;5.616;2023-02-14T01:24:02;103272.53;;;-0.69;90.05
71805;BME280;59654;52.216;5.616;2023-02-14T01:24:35;103271.66;;;-0.70;90.45
71805;BME280;59654;52.216;5.616;2023-02-14T01:25:06;103277.78;;;-0.69;90.39
71805;BME280;59654;52.216;5.616;2023-02-14T01:25:37;103279.50;;;-0.70;90.06
71805;BME280;59654;52.216;5.616;2023-02-14T01:26:10;103277.78;;;-0.69;90.68
71805;BME280;59654;52.216;5.616;2023-02-14T01:26:41;103274.34;;;-0.68;90.80
71805;BME280;59654;52.216;5.616;2023-02-14T01:27:13;103276.97;;;-0.68;90.71
71805;BME280;59654;52.216;5.616;2023-02-14T01:27:43;103278.75;;;-0.67;90.33
71805;BME280;59654;52.216;5.616;2023-02-14T01:28:14;103276.06;;;-0.69;90.31
71805;BME280;59654;52.216;5.616;2023-02-14T01:28:46;103279.59;;;-0.68;90.46
71805;BME280;59654;52.216;5.616;2023-02-14T01:29:17;103269.94;;;-0.69;90.23
71805;BME280;59654;52.216;5.616;2023-02-14T01:29:48;103270.81;;;-0.69;90.08
71805;BME280;59654;52.216;5.616;2023-02-14T01:30:19;103271.56;;;-0.71;89.73
71805;BME280;59654;52.216;5.616;2023-02-14T01:30:50;103276.81;;;-0.71;89.95
71805;BME280;59654;52.216;5.616;2023-02-14T01:31:24;103280.22;;;-0.74;89.77
71805;BME280;59654;52.216;5.616;2023-02-14T01:31:56;103267.94;;;-0.75;89.68
71805;BME280;59654;52.216;5.616;2023-02-14T01:32:33;103274.06;;;-0.74;90.01
71805;BME280;59654;52.216;5.616;2023-02-14T01:33:03;103273.94;;;-0.77;90.05
71805;BME280;59654;52.216;5.616;2023-02-14T01:33:35;103275.56;;;-0.79;89.52
71805;BME280;59654;52.216;5.616;2023-02-14T01:34:06;103278.13;;;-0.81;89.44
71805;BME280;59654;52.216;5.616;2023-02-14T01:34:37;103277.22;;;-0.81;89.82
71805;BME280;59654;52.216;5.616;2023-02-14T01:35:09;103277.97;;;-0.84;89.59
71805;BME280;59654;52.216;5.616;2023-02-14T01:35:41;103281.41;;;-0.85;89.67
71805;BME280;59654;52.216;5.616;2023-02-14T01:36:34;103272.56;;;-0.87;89.88
71805;BME280;59654;52.216;5.616;2023-02-14T01:37:06;103273.41;;;-0.88;90.45
71805;BME280;59654;52.216;5.616;2023-02-14T01:37:39;103278.59;;;-0.90;89.93
71805;BME280;59654;52.216;5.616;2023-02-14T01:38:10;103275.97;;;-0.90;90.27
71805;BME280;59654;52.216;5.616;2023-02-14T01:38:41;103273.28;;;-0.91;90.51
71805;BME280;59654;52.216;5.616;2023-02-14T01:39:13;103274.16;;;-0.91;90.55
71805;BME280;59654;52.216;5.616;2023-02-14T01:39:45;103276.78;;;-0.91;90.57
71805;BME280;59654;52.216;5.616;2023-02-14T01:40:18;103275.88;;;-0.91;90.43
71805;BME280;59654;52.216;5.616;2023-02-14T01:40:49;103273.19;;;-0.93;90.76
71805;BME280;59654;52.216;5.616;2023-02-14T01:41:22;103280.16;;;-0.93;90.71
71805;BME280;59654;52.216;5.616;2023-02-14T01:41:53;103275.00;;;-0.92;90.73
71805;BME280;59654;52.216;5.616;2023-02-14T01:42:25;103275.81;;;-0.93;90.63
71805;BME280;59654;52.216;5.616;2023-02-14T01:42:56;103273.19;;;-0.93;91.05
71805;BME280;59654;52.216;5.616;2023-02-14T01:43:27;103276.72;;;-0.92;91.18
71805;BME280;59654;52.216;5.616;2023-02-14T01:44:02;103271.47;;;-0.92;91.25
71805;BME280;59654;52.216;5.616;2023-02-14T01:45:20;103279.41;;;-0.91;91.14
71805;BME280;59654;52.216;5.616;2023-02-14T01:45:52;103274.16;;;-0.91;91.80
71805;BME280;59654;52.216;5.616;2023-02-14T01:46:25;103276.88;;;-0.89;91.15
71805;BME280;59654;52.216;5.616;2023-02-14T01:46:59;103282.09;;;-0.89;91.36
71805;BME280;59654;52.216;5.616;2023-02-14T01:47:38;103280.34;;;-0.89;91.03
71805;BME280;59654;52.216;5.616;2023-02-14T01:48:12;103273.41;;;-0.88;91.04
71805;BME280;59654;52.216;5.616;2023-02-14T01:48:44;103276.91;;;-0.88;91.14
71805;BME280;59654;52.216;5.616;2023-02-14T01:49:21;103270.84;;;-0.86;91.28
71805;BME280;59654;52.216;5.616;2023-02-14T01:50:02;103272.66;;;-0.85;91.05
71805;BME280;59654;52.216;5.616;2023-02-14T01:50:42;103269.19;;;-0.84;91.07
71805;BME280;59654;52.216;5.616;2023-02-14T01:51:18;103282.28;;;-0.84;90.67
71805;BME280;59654;52.216;5.616;2023-02-14T01:51:53;103276.25;;;-0.83;90.58
71805;BME280;59654;52.216;5.616;2023-02-14T01:52:38;103275.34;;;-0.84;90.45
71805;BME280;59654;52.216;5.616;2023-02-14T01:53:25;103273.63;;;-0.83;90.50
71805;BME280;59654;52.216;5.616;2023-02-14T01:54:01;103277.06;;;-0.84;90.02
71805;BME280;59654;52.216;5.616;2023-02-14T01:54:37;103276.16;;;-0.85;90.59
71805;BME280;59654;52.216;5.616;2023-02-14T01:55:21;103278.72;;;-0.86;90.02
71805;BME280;59654;52.216;5.616;2023-02-14T01:56:05;103278.59;;;-0.90;90.16
71805;BME280;59654;52.216;5.616;2023-02-14T01:56:47;103280.34;;;-0.89;90.27
71805;BME280;59654;52.216;5.616;2023-02-14T01:57:23;103275.13;;;-0.89;90.20
71805;BME280;59654;52.216;5.616;2023-02-14T01:58:05;103277.69;;;-0.90;90.01
71805;BME280;59654;52.216;5.616;2023-02-14T01:58:45;103284.66;;;-0.91;89.75
71805;BME280;59654;52.216;5.616;2023-02-14T01:59:24;103279.34;;;-0.92;90.01
71805;BME280;59654;52.216;5.616;2023-02-14T01:59:58;103279.19;;;-0.95;90.03
71805;BME280;59654;52.216;5.616;2023-02-14T02:00:50;103278.28;;;-0.96;90.09
71805;BME280;59654;52.216;5.616;2023-02-14T02:01:29;103273.03;;;-0.96;90.17
71805;BME280;59654;52.216;5.616;2023-02-14T02:02:01;103274.75;;;-0.96;90.31
71805;BME280;59654;52.216;5.616;2023-02-14T02:02:32;103280.00;;;-0.96;90.16
71805;BME280;59654;52.216;5.616;2023-02-14T02:03:04;103276.47;;;-0.97;90.24
71805;BME280;59654;52.216;5.616;2023-02-14T02:03:55;103266.84;;;-0.98;90.32
71805;BME280;59654;52.216;5.616;2023-02-14T02:04:33;103276.41;;;-0.98;90.46
71805;BME280;59654;52.216;5.616;2023-02-14T02:05:07;103263.31;;;-0.98;90.19
71805;BME280;59654;52.216;5.616;2023-02-14T02:05:43;103266.69;;;-1.01;90.03
71805;BME280;59654;52.216;5.616;2023-02-14T02:06:22;103262.25;;;-1.02;89.85
71805;BME280;59654;52.216;5.616;2023-02-14T02:07:03;103265.63;;;-1.04;89.98
71805;BME280;59654;52.216;5.616;2023-02-14T02:07:37;103262.88;;;-1.07;90.01
71805;BME280;59654;52.216;5.616;2023-02-14T02:08:09;103267.22;;;-1.08;90.24
71805;BME280;59654;52.216;5.616;2023-02-14T02:09:09;103261.00;;;-1.10;90.11
71805;BME280;59654;52.216;5.616;2023-02-14T02:09:58;103254.81;;;-1.12;90.47
71805;BME280;59654;52.216;5.616;2023-02-14T02:10:30;103256.44;;;-1.14;90.63
71805;BME280;59654;52.216;5.616;2023-02-14T02:11:01;103261.69;;;-1.14;90.41
71805;BME280;59654;52.216;5.616;2023-02-14T02:11:33;103264.28;;;-1.14;90.67
71805;BME280;59654;52.216;5.616;2023-02-14T02:12:04;103260.78;;;-1.14;90.78
71805;BME280;59654;52.216;5.616;2023-02-14T02:12:36;103265.19;;;-1.13;90.96
71805;BME280;59654;52.216;5.616;2023-02-14T02:13:12;103265.19;;;-1.13;91.17
71805;BME280;59654;52.216;5.616;2023-02-14T02:13:46;103265.19;;;-1.13;90.95
71805;BME280;59654;52.216;5.616;2023-02-14T02:14:20;103267.00;;;-1.12;91.03
71805;BME280;59654;52.216;5.616;2023-02-14T02:14:54;103262.72;;;-1.10;91.32
71805;BME280;59654;52.216;5.616;2023-02-14T02:15:29;103268.03;;;-1.09;91.23
71805;BME280;59654;52.216;5.616;2023-02-14T02:21:34;103260.78;;;-0.97;91.34
71805;BME280;59654;52.216;5.616;2023-02-14T02:22:46;103259.13;;;-0.95;91.04
71805;BME280;59654;52.216;5.616;2023-02-14T02:26:34;103256.78;;;-0.89;90.76
71805;BME280;59654;52.216;5.616;2023-02-14T02:29:06;103259.63;;;-0.84;91.12
71805;BME280;59654;52.216;5.616;2023-02-14T02:29:57;103264.94;;;-0.82;91.03
71805;BME280;59654;52.216;5.616;2023-02-14T02:32:17;103257.97;;;-0.82;90.48
71805;BME280;59654;52.216;5.616;2023-02-14T02:35:26;103256.13;;;-0.84;89.42
71805;BME280;59654;52.216;5.616;2023-02-14T02:40:54;103258.22;;;-0.95;90.10
71805;BME280;59654;52.216;5.616;2023-02-14T02:45:12;103251.34;;;-0.93;90.46
71805;BME280;59654;52.216;5.616;2023-02-14T02:46:10;103255.03;;;-0.90;90.73
71805;BME280;59654;52.216;5.616;2023-02-14T02:47:21;103252.31;;;-0.91;90.83
71805;BME280;59654;52.216;5.616;2023-02-14T02:48:09;103253.22;;;-0.91;90.77
71805;BME280;59654;52.216;5.616;2023-02-14T02:51:23;103262.09;;;-0.87;90.79
71805;BME280;59654;52.216;5.616;2023-02-14T02:53:53;103250.72;;;-0.88;90.14
71805;BME280;59654;52.216;5.616;2023-02-14T02:54:39;103250.59;;;-0.91;90.28
71805;BME280;59654;52.216;5.616;2023-02-14T02:55:21;103247.91;;;-0.92;89.92
71805;BME280;59654;52.216;5.616;2023-02-14T02:57:00;103257.34;;;-0.96;90.21
71805;BME280;59654;52.216;5.616;2023-02-14T02:57:38;103252.84;;;-0.98;90.22
71805;BME280;59654;52.216;5.616;2023-02-14T02:58:11;103251.03;;;-0.99;90.19
71805;BME280;59654;52.216;5.616;2023-02-14T02:58:51;103250.16;;;-1.00;90.69
71805;BME280;59654;52.216;5.616;2023-02-14T02:59:29;103245.75;;;-1.01;90.69
71805;BME280;59654;52.216;5.616;2023-02-14T03:00:05;103254.41;;;-1.02;91.03
71805;BME280;59654;52.216;5.616;2023-02-14T03:00:40;103257.09;;;-1.00;90.69
71805;BME280;59654;52.216;5.616;2023-02-14T03:01:22;103249.25;;;-1.00;91.25
71805;BME280;59654;52.216;5.616;2023-02-14T03:02:22;103247.53;;;-1.00;91.21
71805;BME280;59654;52.216;5.616;2023-02-14T03:02:56;103250.97;;;-1.01;90.72
71805;BME280;59654;52.216;5.616;2023-02-14T03:03:52;103251.88;;;-1.00;90.94
71805;BME280;59654;52.216;5.616;2023-02-14T03:04:59;103252.78;;;-1.00;90.70
71805;BME280;59654;52.216;5.616;2023-02-14T03:05:34;103249.19;;;-1.02;90.63
71805;BME280;59654;52.216;5.616;2023-02-14T03:06:06;103243.03;;;-1.02;90.52
71805;BME280;59654;52.216;5.616;2023-02-14T03:06:37;103248.34;;;-1.01;90.48
71805;BME280;59654;52.216;5.616;2023-02-14T03:07:08;103245.81;;;-0.99;90.80
71805;BME280;59654;52.216;5.616;2023-02-14T03:07:57;103244.00;;;-1.00;90.61
71805;BME280;59654;52.216;5.616;2023-02-14T03:08:28;103245.75;;;-1.01;90.79
71805;BME280;59654;52.216;5.616;2023-02-14T03:10:21;103248.34;;;-1.01;91.19
71805;BME280;59654;52.216;5.616;2023-02-14T03:10:53;103242.28;;;-1.00;91.15
71805;BME280;59654;52.216;5.616;2023-02-14T03:11:24;103246.63;;;-1.00;91.12
71805;BME280;59654;52.216;5.616;2023-02-14T03:12:03;103246.72;;;-0.99;91.31
71805;BME280;59654;52.216;5.616;2023-02-14T03:13:58;103245.06;;;-0.97;91.03
71805;BME280;59654;52.216;5.616;2023-02-14T03:16:33;103239.22;;;-0.91;90.71
71805;BME280;59654;52.216;5.616;2023-02-14T03:21:40;103235.84;;;-0.89;90.33
71805;BME280;59654;52.216;5.616;2023-02-14T03:23:53;103236.72;;;-0.88;90.43
71805;BME280;59654;52.216;5.616;2023-02-14T03:24:55;103236.63;;;-0.91;89.87
71805;BME280;59654;52.216;5.616;2023-02-14T03:27:01;103239.16;;;-0.93;89.96
71805;BME280;59654;52.216;5.616;2023-02-14T03:27:53;103234.75;;;-0.94;90.12
71805;BME280;59654;52.216;5.616;2023-02-14T03:30:42;103238.94;;;-0.97;89.98
71805;BME280;59654;52.216;5.616;2023-02-14T03:33:36;103236.25;;;-0.99;90.11
71805;BME280;59654;52.216;5.616;2023-02-14T03:36:02;103235.34;;;-0.99;90.69
71805;BME280;59654;52.216;5.616;2023-02-14T03:36:57;103234.44;;;-1.00;90.74
71805;BME280;59654;52.216;5.616;2023-02-14T03:37:33;103237.06;;;-1.00;90.56
71805;BME280;59654;52.216;5.616;2023-02-14T03:39:01;103232.66;;;-1.01;90.83
71805;BME280;59654;52.216;5.616;2023-02-14T03:39:50;103230.84;;;-1.02;90.43
71805;BME280;59654;52.216;5.616;2023-02-14T03:40:40;103237.81;;;-1.02;90.33
71805;BME280;59654;52.216;5.616;2023-02-14T03:41:21;103229.06;;;-1.03;90.56
71805;BME280;59654;52.216;5.616;2023-02-14T03:42:08;103229.88;;;-1.04;90.43
71805;BME280;59654;52.216;5.616;2023-02-14T03:43:13;103239.53;;;-1.03;90.61
71805;BME280;59654;52.216;5.616;2023-02-14T03:43:54;103233.41;;;-1.03;90.75
71805;BME280;59654;52.216;5.616;2023-02-14T03:44:29;103233.41;;;-1.03;90.56
71805;BME280;59654;52.216;5.616;2023-02-14T03:45:06;103229.88;;;-1.04;90.79
71805;BME280;59654;52.216;5.616;2023-02-14T03:45:50;103234.28;;;-1.03;90.62
71805;BME280;59654;52.216;5.616;2023-02-14T03:46:35;103235.19;;;-1.02;90.56
71805;BME280;59654;52.216;5.616;2023-02-14T03:47:16;103229.94;;;-1.02;90.35
71805;BME280;59654;52.216;5.616;2023-02-14T03:47:52;103229.94;;;-1.02;90.62
71805;BME280;59654;52.216;5.616;2023-02-14T03:48:28;103227.41;;;-1.01;90.71
71805;BME280;59654;52.216;5.616;2023-02-14T03:49:07;103231.81;;;-1.00;90.56
71805;BME280;59654;52.216;5.616;2023-02-14T03:49:47;103227.56;;;-0.98;90.42
71805;BME280;59654;52.216;5.616;2023-02-14T03:50:21;103224.13;;;-0.97;90.43
71805;BME280;59654;52.216;5.616;2023-02-14T03:50:53;103232.06;;;-0.95;90.42
71805;BME280;59654;52.216;5.616;2023-02-14T03:51:27;103229.50;;;-0.94;90.33
71805;BME280;59654;52.216;5.616;2023-02-14T03:52:07;103230.41;;;-0.93;90.15
71805;BME280;59654;52.216;5.616;2023-02-14T03:52:41;103230.47;;;-0.92;90.26
71805;BME280;59654;52.216;5.616;2023-02-14T03:53:20;103221.72;;;-0.92;90.03